createdAt,value
2018-12-03T00:00:36.808Z,993.57
2018-12-03T00:01:36.808Z,993.57
2018-12-03T00:02:36.795Z,993.55
2018-12-03T00:03:36.799Z,993.60
2018-12-03T00:04:37.877Z,993.59
2018-12-03T00:05:36.789Z,993.61
2018-12-03T00:06:36.790Z,993.64
2018-12-03T00:07:36.782Z,993.68
2018-12-03T00:08:36.785Z,993.66
2018-12-03T00:09:36.778Z,993.63
2018-12-03T00:10:36.763Z,993.60
2018-12-03T00:11:36.773Z,993.62
2018-12-03T00:12:36.765Z,993.65
2018-12-03T00:13:36.817Z,993.60
2018-12-03T00:14:36.785Z,993.63
2018-12-03T00:15:36.749Z,993.62
2018-12-03T00:16:36.753Z,993.52
2018-12-03T00:17:36.739Z,993.63
2018-12-03T00:18:36.740Z,993.62
2018-12-03T00:19:36.734Z,993.70
2018-12-03T00:20:36.721Z,993.66
2018-12-03T00:21:36.742Z,993.62
2018-12-03T00:22:36.735Z,993.65
2018-12-03T00:23:36.770Z,993.64
2018-12-03T00:24:36.707Z,993.67
2018-12-03T00:25:36.707Z,993.69
2018-12-03T00:26:36.702Z,993.64
2018-12-03T00:27:36.698Z,993.65
2018-12-03T00:28:36.696Z,993.64
2018-12-03T00:29:36.689Z,993.73
2018-12-03T00:30:36.706Z,993.70
2018-12-03T00:31:36.700Z,993.70
2018-12-03T00:32:36.685Z,993.72
2018-12-03T00:33:36.671Z,993.71
2018-12-03T00:34:36.675Z,993.73
2018-12-03T00:35:36.671Z,993.75
2018-12-03T00:36:36.658Z,993.75
2018-12-03T00:37:36.667Z,993.77
2018-12-03T00:38:36.654Z,993.75
2018-12-03T00:39:36.649Z,993.78
2018-12-03T00:40:36.648Z,993.80
2018-12-03T00:41:36.655Z,993.79
2018-12-03T00:42:36.649Z,993.80
2018-12-03T00:43:36.657Z,993.79
2018-12-03T00:44:36.631Z,993.77
2018-12-03T00:45:36.628Z,993.71
2018-12-03T00:46:36.625Z,993.78
2018-12-03T00:47:36.620Z,993.84
2018-12-03T00:48:36.618Z,993.85
2018-12-03T00:49:36.613Z,993.85
2018-12-03T00:50:36.620Z,993.80
2018-12-03T00:51:36.604Z,993.81
2018-12-03T00:52:36.608Z,993.82
2018-12-03T00:53:36.604Z,993.85
2018-12-03T00:54:36.592Z,993.85
2018-12-03T00:55:36.599Z,993.77
2018-12-03T00:56:36.594Z,993.72
2018-12-03T00:57:36.584Z,993.77
2018-12-03T00:58:36.586Z,993.72
2018-12-03T00:59:36.575Z,993.75
2018-12-03T01:00:36.577Z,993.79
2018-12-03T01:01:36.588Z,993.82
2018-12-03T01:02:36.559Z,993.82
2018-12-03T01:03:36.571Z,993.87
2018-12-03T01:04:36.549Z,993.84
2018-12-03T01:05:36.545Z,993.84
2018-12-03T01:06:36.546Z,993.87
2018-12-03T01:07:36.553Z,993.80
2018-12-03T01:08:36.538Z,993.79
2018-12-03T01:09:36.541Z,993.83
2018-12-03T01:10:36.531Z,993.84
2018-12-03T01:11:36.579Z,993.88
2018-12-03T01:12:36.535Z,993.89
2018-12-03T01:13:36.520Z,993.95
2018-12-03T01:14:36.510Z,993.91
2018-12-03T01:15:36.512Z,993.93
2018-12-03T01:16:36.505Z,993.98
2018-12-03T01:17:36.540Z,993.95
2018-12-03T01:18:36.499Z,993.99
2018-12-03T01:19:36.511Z,994.00
2018-12-03T01:20:36.525Z,993.88
2018-12-03T01:21:36.507Z,993.92
2018-12-03T01:22:36.577Z,993.89
2018-12-03T01:23:36.497Z,993.93
2018-12-03T01:24:36.477Z,993.92
2018-12-03T01:25:36.468Z,993.91
2018-12-03T01:26:36.475Z,993.98
2018-12-03T01:27:36.471Z,993.95
2018-12-03T01:28:36.471Z,993.96
2018-12-03T01:29:36.460Z,993.97
2018-12-03T01:30:36.467Z,993.95
2018-12-03T01:31:36.495Z,993.97
2018-12-03T01:32:36.486Z,994.02
2018-12-03T01:33:36.464Z,993.95
2018-12-03T01:34:36.438Z,993.97
2018-12-03T01:35:36.445Z,993.97
2018-12-03T01:36:36.430Z,994.01
2018-12-03T01:37:36.435Z,994.01
2018-12-03T01:38:36.417Z,993.98
2018-12-03T01:39:36.418Z,993.97
2018-12-03T01:40:36.426Z,994.00
2018-12-03T01:41:36.413Z,993.97
2018-12-03T01:42:36.412Z,993.93
2018-12-03T01:43:36.399Z,994.00
2018-12-03T01:44:36.394Z,993.93
2018-12-03T01:45:36.400Z,993.93
2018-12-03T01:46:36.403Z,993.93
2018-12-03T01:47:36.402Z,993.88
2018-12-03T01:48:36.408Z,993.90
2018-12-03T01:49:36.403Z,993.87
2018-12-03T01:50:36.389Z,993.88
2018-12-03T01:51:36.370Z,993.85
2018-12-03T01:52:36.382Z,993.84
2018-12-03T01:53:36.359Z,993.84
2018-12-03T01:54:36.389Z,993.86
2018-12-03T01:55:36.360Z,993.84
2018-12-03T01:56:36.376Z,993.83
2018-12-03T01:57:36.348Z,993.80
2018-12-03T01:58:36.349Z,993.78
2018-12-03T01:59:36.355Z,993.77
2018-12-03T02:00:36.342Z,993.80
2018-12-03T02:01:36.342Z,993.79
2018-12-03T02:02:36.351Z,993.76
2018-12-03T02:03:36.333Z,993.77
2018-12-03T02:04:36.325Z,993.73
2018-12-03T02:05:36.322Z,993.79
2018-12-03T02:06:36.325Z,993.84
2018-12-03T02:07:36.319Z,993.78
2018-12-03T02:08:36.340Z,993.81
2018-12-03T02:09:36.328Z,993.76
2018-12-03T02:10:36.323Z,993.81
2018-12-03T02:11:36.308Z,993.73
2018-12-03T02:12:36.294Z,993.81
2018-12-03T02:13:36.322Z,993.80
2018-12-03T02:14:36.297Z,993.85
2018-12-03T02:15:36.285Z,993.80
2018-12-03T02:16:36.283Z,993.76
2018-12-03T02:17:36.289Z,993.84
2018-12-03T02:18:36.291Z,993.86
2018-12-03T02:19:36.291Z,993.86
2018-12-03T02:20:36.264Z,993.92
2018-12-03T02:21:36.283Z,993.88
2018-12-03T02:22:36.264Z,993.76
2018-12-03T02:23:36.254Z,993.74
2018-12-03T02:24:36.255Z,993.81
2018-12-03T02:25:36.280Z,993.80
2018-12-03T02:26:36.244Z,993.82
2018-12-03T02:27:36.247Z,993.80
2018-12-03T02:28:36.248Z,993.75
2018-12-03T02:29:36.248Z,993.83
2018-12-03T02:30:36.237Z,993.83
2018-12-03T02:31:36.221Z,993.82
2018-12-03T02:32:36.226Z,993.71
2018-12-03T02:33:36.218Z,993.84
2018-12-03T02:34:36.220Z,993.78
2018-12-03T02:35:36.218Z,993.82
2018-12-03T02:36:36.211Z,993.85
2018-12-03T02:37:36.212Z,993.78
2018-12-03T02:38:36.219Z,993.84
2018-12-03T02:39:36.211Z,993.83
2018-12-03T02:40:36.197Z,993.87
2018-12-03T02:41:36.185Z,993.84
2018-12-03T02:42:36.191Z,993.83
2018-12-03T02:43:36.181Z,993.85
2018-12-03T02:44:36.183Z,993.84
2018-12-03T02:45:36.176Z,993.81
2018-12-03T02:46:36.169Z,993.86
2018-12-03T02:47:36.169Z,993.85
2018-12-03T02:48:36.164Z,993.85
2018-12-03T02:49:36.160Z,993.80
2018-12-03T02:50:36.154Z,993.78
2018-12-03T02:51:36.156Z,993.80
2018-12-03T02:52:36.148Z,993.79
2018-12-03T02:53:36.151Z,993.78
2018-12-03T02:54:36.139Z,993.82
2018-12-03T02:55:36.145Z,993.74
2018-12-03T02:56:36.137Z,993.76
2018-12-03T02:57:36.134Z,993.77
2018-12-03T03:14:08.254Z,993.84
2018-12-03T03:15:08.218Z,993.86
2018-12-03T03:16:08.215Z,993.76
2018-12-03T03:17:08.205Z,993.81
2018-12-03T03:18:08.191Z,993.87
2018-12-03T03:19:08.186Z,993.89
2018-12-03T03:20:08.180Z,993.89
2018-12-03T03:21:08.183Z,993.97
2018-12-03T03:22:08.193Z,993.98
2018-12-03T03:23:08.157Z,993.94
2018-12-03T03:24:08.182Z,993.94
2018-12-03T03:25:08.160Z,993.94
2018-12-03T03:26:08.145Z,993.93
2018-12-03T03:27:08.150Z,993.93
2018-12-03T03:28:08.136Z,993.96
2018-12-03T03:29:08.131Z,993.91
2018-12-03T03:30:08.133Z,993.88
2018-12-03T03:31:08.127Z,993.88
2018-12-03T03:32:08.117Z,993.90
2018-12-03T03:33:08.117Z,993.82
2018-12-03T03:34:08.125Z,993.78
2018-12-03T03:35:08.104Z,993.84
2018-12-03T03:36:08.113Z,993.87
2018-12-03T03:37:08.129Z,993.90
2018-12-03T03:38:08.116Z,993.94
2018-12-03T03:39:08.106Z,993.97
2018-12-03T03:40:08.107Z,993.98
2018-12-03T03:41:08.121Z,993.99
2018-12-03T03:42:08.111Z,993.96
2018-12-03T03:43:08.110Z,993.88
2018-12-03T03:44:08.154Z,993.91
2018-12-03T03:45:08.104Z,993.93
2018-12-03T03:46:08.085Z,993.99
2018-12-03T03:47:08.076Z,993.87
2018-12-03T03:48:08.074Z,993.97
2018-12-03T03:49:08.081Z,993.91
2018-12-03T03:50:08.078Z,993.90
2018-12-03T03:51:08.086Z,993.93
2018-12-03T03:52:08.062Z,993.88
2018-12-03T03:53:08.072Z,993.84
2018-12-03T03:54:08.052Z,993.88
2018-12-03T03:55:08.073Z,993.83
2018-12-03T03:56:08.054Z,993.93
2018-12-03T03:57:08.045Z,993.92
2018-12-03T03:58:08.050Z,993.89
2018-12-03T03:59:08.028Z,993.81
2018-12-03T04:00:08.027Z,993.80
2018-12-03T04:01:08.038Z,993.75
2018-12-03T04:02:08.033Z,993.78
2018-12-03T04:03:08.034Z,993.73
2018-12-03T04:04:08.016Z,993.77
2018-12-03T04:05:08.021Z,993.71
2018-12-03T04:06:08.004Z,993.71
2018-12-03T04:07:07.998Z,993.69
2018-12-03T04:08:07.994Z,993.68
2018-12-03T04:09:08.004Z,993.71
2018-12-03T04:10:08.009Z,993.68
2018-12-03T04:11:07.995Z,993.62
2018-12-03T04:12:08.045Z,993.59
2018-12-03T04:13:07.999Z,993.61
2018-12-03T04:14:07.980Z,993.56
2018-12-03T04:15:07.970Z,993.61
2018-12-03T04:16:07.970Z,993.55
2018-12-03T04:17:07.960Z,993.61
2018-12-03T04:18:07.960Z,993.53
2018-12-03T04:19:07.965Z,993.53
2018-12-03T04:20:07.955Z,993.51
2018-12-03T04:21:07.966Z,993.52
2018-12-03T04:22:07.961Z,993.48
2018-12-03T04:23:07.970Z,993.48
2018-12-03T04:24:07.959Z,993.50
2018-12-03T04:25:07.931Z,993.48
2018-12-03T04:26:07.937Z,993.47
2018-12-03T04:27:07.935Z,993.49
2018-12-03T04:28:07.926Z,993.52
2018-12-03T04:29:07.917Z,993.52
2018-12-03T04:30:07.930Z,993.53
2018-12-03T04:31:07.920Z,993.54
2018-12-03T04:32:07.922Z,993.52
2018-12-03T04:33:07.918Z,993.48
2018-12-03T04:34:07.896Z,993.48
2018-12-03T04:35:07.909Z,993.51
2018-12-03T04:36:07.893Z,993.47
2018-12-03T04:37:07.899Z,993.42
2018-12-03T04:38:07.900Z,993.51
2018-12-03T04:39:07.892Z,993.50
2018-12-03T04:40:07.875Z,993.55
2018-12-03T04:41:07.872Z,993.53
2018-12-03T04:42:07.872Z,993.55
2018-12-03T04:43:07.879Z,993.62
2018-12-03T04:44:07.870Z,993.58
2018-12-03T04:45:07.877Z,993.66
2018-12-03T04:46:07.870Z,993.70
2018-12-03T04:47:07.849Z,993.73
2018-12-03T04:48:07.844Z,993.67
2018-12-03T04:49:07.849Z,993.77
2018-12-03T04:50:07.844Z,993.63
2018-12-03T04:51:07.856Z,993.73
2018-12-03T04:52:07.840Z,993.71
2018-12-03T04:53:07.843Z,993.73
2018-12-03T04:54:07.827Z,993.81
2018-12-03T04:55:07.890Z,993.77
2018-12-03T04:56:07.835Z,993.80
2018-12-03T04:57:07.831Z,993.91
2018-12-03T04:58:07.832Z,993.83
2018-12-03T04:59:07.816Z,993.94
2018-12-03T05:00:07.814Z,993.89
2018-12-03T05:01:07.797Z,993.88
2018-12-03T05:02:07.809Z,993.88
2018-12-03T05:03:07.810Z,993.88
2018-12-03T05:04:07.809Z,993.90
2018-12-03T05:05:07.782Z,993.93
2018-12-03T05:06:07.786Z,993.95
2018-12-03T05:07:07.761Z,994.04
2018-12-03T05:08:07.755Z,994.04
2018-12-03T05:09:07.744Z,994.00
2018-12-03T05:10:07.759Z,994.02
2018-12-03T05:11:07.739Z,994.06
2018-12-03T05:12:07.757Z,994.06
2018-12-03T05:13:07.735Z,994.14
2018-12-03T05:14:07.733Z,994.09
2018-12-03T05:15:07.727Z,994.06
2018-12-03T05:16:07.721Z,994.07
2018-12-03T05:17:07.722Z,994.15
2018-12-03T05:18:07.721Z,994.08
2018-12-03T05:19:07.725Z,994.13
2018-12-03T05:20:07.713Z,994.11
2018-12-03T05:21:07.724Z,994.13
2018-12-03T05:22:07.716Z,994.13
2018-12-03T05:23:07.698Z,994.11
2018-12-03T05:24:07.695Z,994.16
2018-12-03T05:25:07.694Z,994.17
2018-12-03T05:26:07.697Z,994.14
2018-12-03T05:27:07.687Z,994.14
2018-12-03T05:28:07.690Z,994.26
2018-12-03T05:29:07.680Z,994.22
2018-12-03T05:30:07.678Z,994.22
2018-12-03T05:31:07.676Z,994.28
2018-12-03T05:32:07.684Z,994.21
2018-12-03T05:33:07.659Z,994.18
2018-12-03T05:34:07.652Z,994.17
2018-12-03T05:35:07.647Z,994.24
2018-12-03T05:36:07.695Z,994.22
2018-12-03T05:37:07.655Z,994.17
2018-12-03T05:38:07.646Z,994.21
2018-12-03T05:39:07.643Z,994.17
2018-12-03T05:40:07.646Z,994.21
2018-12-03T05:41:07.658Z,994.18
2018-12-03T05:42:07.641Z,994.16
2018-12-03T05:43:07.624Z,994.18
2018-12-03T05:44:07.620Z,994.25
2018-12-03T05:45:07.647Z,994.33
2018-12-03T05:46:07.625Z,994.39
2018-12-03T05:47:07.609Z,994.32
2018-12-03T05:48:07.608Z,994.34
2018-12-03T05:49:07.606Z,994.33
2018-12-03T05:50:07.604Z,994.25
2018-12-03T05:51:07.616Z,994.33
2018-12-03T05:52:07.588Z,994.29
2018-12-03T05:53:07.587Z,994.34
2018-12-03T05:54:07.670Z,994.44
2018-12-03T05:55:07.600Z,994.43
2018-12-03T05:56:07.590Z,994.38
2018-12-03T05:57:07.574Z,994.45
2018-12-03T05:58:07.570Z,994.49
2018-12-03T05:59:07.565Z,994.42
2018-12-03T06:00:07.585Z,994.48
2018-12-03T06:01:07.561Z,994.42
2018-12-03T06:02:07.552Z,994.47
2018-12-03T06:03:07.552Z,994.38
2018-12-03T06:04:07.548Z,994.42
2018-12-03T06:05:07.550Z,994.43
2018-12-03T06:06:07.539Z,994.40
2018-12-03T06:07:07.552Z,994.45
2018-12-03T06:08:07.542Z,994.54
2018-12-03T06:09:07.540Z,994.35
2018-12-03T06:10:07.533Z,994.49
2018-12-03T06:11:07.521Z,994.46
2018-12-03T06:12:07.518Z,994.51
2018-12-03T06:13:07.525Z,994.49
2018-12-03T06:14:07.524Z,994.47
2018-12-03T06:15:07.686Z,994.39
2018-12-03T06:16:07.502Z,994.50
2018-12-03T06:17:07.530Z,994.44
2018-12-03T06:18:07.554Z,994.45
2018-12-03T06:19:07.562Z,994.57
2018-12-03T06:20:07.564Z,994.58
2018-12-03T06:21:07.584Z,994.59
2018-12-03T06:22:07.555Z,994.50
2018-12-03T06:23:07.479Z,994.51
2018-12-03T06:24:07.506Z,994.51
2018-12-03T06:25:07.502Z,994.52
2018-12-03T06:26:07.509Z,994.53
2018-12-03T06:27:07.568Z,994.59
2018-12-03T06:28:07.495Z,994.58
2018-12-03T06:29:07.475Z,994.53
2018-12-03T06:30:07.548Z,994.56
2018-12-03T06:31:07.560Z,994.55
2018-12-03T06:32:07.482Z,994.55
2018-12-03T06:33:07.505Z,994.49
2018-12-03T06:34:07.460Z,994.52
2018-12-03T06:35:07.448Z,994.48
2018-12-03T06:36:07.531Z,994.49
2018-12-03T06:37:07.434Z,994.49
2018-12-03T06:38:07.449Z,994.48
2018-12-03T06:39:07.496Z,994.48
2018-12-03T06:40:07.505Z,994.43
2018-12-03T06:41:07.442Z,994.49
2018-12-03T06:42:07.479Z,994.46
2018-12-03T06:43:07.472Z,994.51
2018-12-03T06:44:07.408Z,994.53
2018-12-03T06:45:07.580Z,994.53
2018-12-03T06:46:07.461Z,994.52
2018-12-03T06:47:07.482Z,994.52
2018-12-03T06:48:07.434Z,994.48
2018-12-03T06:49:07.476Z,994.47
2018-12-03T06:50:07.396Z,994.40
2018-12-03T06:51:07.413Z,994.45
2018-12-03T06:52:07.383Z,994.42
2018-12-03T06:53:07.382Z,994.37
2018-12-03T06:54:07.375Z,994.38
2018-12-03T06:55:07.418Z,994.33
2018-12-03T06:56:07.386Z,994.44
2018-12-03T06:57:07.379Z,994.36
2018-12-03T06:58:07.390Z,994.43
2018-12-03T06:59:07.354Z,994.41
2018-12-03T07:00:07.363Z,994.39
2018-12-03T07:01:07.387Z,994.40
2018-12-03T07:02:07.372Z,994.41
2018-12-03T07:03:07.346Z,994.40
2018-12-03T07:04:07.348Z,994.35
2018-12-03T07:05:07.362Z,994.50
2018-12-03T07:06:07.382Z,994.55
2018-12-03T07:07:07.353Z,994.55
2018-12-03T07:08:07.354Z,994.53
2018-12-03T07:09:07.329Z,994.54
2018-12-03T07:10:07.316Z,994.63
2018-12-03T07:11:07.315Z,994.61
2018-12-03T07:12:07.311Z,994.59
2018-12-03T07:13:07.313Z,994.64
2018-12-03T07:14:07.304Z,994.58
2018-12-03T07:15:07.300Z,994.59
2018-12-03T07:16:07.298Z,994.59
2018-12-03T07:17:07.305Z,994.55
2018-12-03T07:18:07.295Z,994.52
2018-12-03T07:19:07.312Z,994.49
2018-12-03T07:20:07.296Z,994.51
2018-12-03T07:21:07.303Z,994.49
2018-12-03T07:22:07.274Z,994.48
2018-12-03T07:23:07.314Z,994.43
2018-12-03T07:24:07.281Z,994.49
2018-12-03T07:25:07.261Z,994.57
2018-12-03T07:26:07.259Z,994.64
2018-12-03T07:27:07.272Z,994.62
2018-12-03T07:28:07.259Z,994.56
2018-12-03T07:29:07.265Z,994.64
2018-12-03T07:30:07.276Z,994.60
2018-12-03T07:31:07.265Z,994.63
2018-12-03T07:32:07.244Z,994.56
2018-12-03T07:33:07.254Z,994.53
2018-12-03T07:34:07.242Z,994.61
2018-12-03T07:35:07.246Z,994.44
2018-12-03T07:36:07.278Z,994.55
2018-12-03T07:37:07.227Z,994.53
2018-12-03T07:38:07.252Z,994.49
2018-12-03T07:39:07.272Z,994.50
2018-12-03T07:40:07.258Z,994.43
2018-12-03T07:41:07.236Z,994.44
2018-12-03T07:42:07.207Z,994.43
2018-12-03T07:43:07.194Z,994.39
2018-12-03T07:44:07.190Z,994.36
2018-12-03T07:45:07.199Z,994.34
2018-12-03T07:46:07.186Z,994.43
2018-12-03T07:47:07.181Z,994.44
2018-12-03T07:48:07.188Z,994.48
2018-12-03T07:49:07.177Z,994.39
2018-12-03T07:50:07.192Z,994.46
2018-12-03T07:51:07.169Z,994.41
2018-12-03T07:52:07.182Z,994.48
2018-12-03T07:53:07.158Z,994.44
2018-12-03T07:54:07.164Z,994.43
2018-12-03T07:55:07.152Z,994.44
2018-12-03T07:56:07.161Z,994.39
2018-12-03T07:57:07.148Z,994.45
2018-12-03T07:58:07.138Z,994.39
2018-12-03T07:59:07.148Z,994.44
2018-12-03T08:00:07.160Z,994.39
2018-12-03T08:01:07.129Z,994.39
2018-12-03T08:02:07.125Z,994.40
2018-12-03T08:03:07.144Z,994.31
2018-12-03T08:04:07.132Z,994.42
2018-12-03T08:05:07.118Z,994.42
2018-12-03T08:06:07.117Z,994.36
2018-12-03T08:07:07.144Z,994.32
2018-12-03T08:08:07.104Z,994.41
2018-12-03T08:09:07.144Z,994.46
2018-12-03T08:10:07.096Z,994.49
2018-12-03T08:11:07.124Z,994.52
2018-12-03T08:12:07.087Z,994.51
2018-12-03T08:13:07.094Z,994.46
2018-12-03T08:14:07.091Z,994.40
2018-12-03T08:15:07.081Z,994.35
2018-12-03T08:16:07.074Z,994.41
2018-12-03T08:17:07.068Z,994.44
2018-12-03T08:18:07.070Z,994.43
2018-12-03T08:19:07.060Z,994.40
2018-12-03T08:20:07.062Z,994.37
2018-12-03T08:21:07.056Z,994.35
2018-12-03T08:22:07.051Z,994.41
2018-12-03T08:23:07.044Z,994.35
2018-12-03T08:24:07.042Z,994.40
2018-12-03T08:25:07.043Z,994.38
2018-12-03T08:26:07.035Z,994.41
2018-12-03T08:27:07.041Z,994.41
2018-12-03T08:28:07.042Z,994.47
2018-12-03T08:29:07.022Z,994.41
2018-12-03T08:30:07.029Z,994.36
2018-12-03T08:31:07.016Z,994.46
2018-12-03T08:32:07.012Z,994.42
2018-12-03T08:33:07.021Z,994.38
2018-12-03T08:34:07.008Z,994.43
2018-12-03T08:35:07.003Z,994.40
2018-12-03T08:36:06.999Z,994.42
2018-12-03T08:37:07.000Z,994.34
2018-12-03T08:38:07.018Z,994.38
2018-12-03T08:39:06.993Z,994.41
2018-12-03T08:40:06.991Z,994.39
2018-12-03T08:41:06.995Z,994.42
2018-12-03T08:42:06.981Z,994.45
2018-12-03T08:43:06.982Z,994.44
2018-12-03T08:44:06.982Z,994.49
2018-12-03T08:45:06.978Z,994.57
2018-12-03T08:46:06.973Z,994.56
2018-12-03T08:47:06.978Z,994.58
2018-12-03T08:48:06.964Z,994.61
2018-12-03T08:49:06.965Z,994.58
2018-12-03T08:50:06.959Z,994.66
2018-12-03T08:51:06.960Z,994.70
2018-12-03T08:52:06.974Z,994.70
2018-12-03T08:53:06.955Z,994.78
2018-12-03T08:54:06.949Z,994.74
2018-12-03T08:55:06.945Z,994.86
2018-12-03T08:56:06.938Z,994.80
2018-12-03T08:57:06.941Z,994.88
2018-12-03T08:58:06.966Z,994.87
2018-12-03T08:59:06.926Z,994.96
2018-12-03T09:00:06.953Z,994.96
2018-12-03T09:01:06.938Z,994.93
2018-12-03T09:02:06.960Z,994.84
2018-12-03T09:03:06.945Z,994.88
2018-12-03T09:04:06.918Z,994.84
2018-12-03T09:05:06.975Z,994.83
2018-12-03T09:06:06.934Z,994.86
2018-12-03T09:07:06.930Z,994.82
2018-12-03T09:08:06.897Z,994.77
2018-12-03T09:09:06.928Z,994.83
2018-12-03T09:10:06.934Z,994.73
2018-12-03T09:11:06.948Z,994.74
2018-12-03T09:12:06.905Z,994.78
2018-12-03T09:13:06.912Z,994.78
2018-12-03T09:14:06.883Z,994.80
2018-12-03T09:15:06.871Z,994.72
2018-12-03T09:16:06.895Z,994.80
2018-12-03T09:17:06.919Z,994.65
2018-12-03T09:18:06.918Z,994.68
2018-12-03T09:19:06.913Z,994.65
2018-12-03T09:20:06.859Z,994.66
2018-12-03T09:21:06.862Z,994.68
2018-12-03T09:22:06.861Z,994.66
2018-12-03T09:23:06.874Z,994.70
2018-12-03T09:24:06.860Z,994.76
2018-12-03T09:25:06.846Z,994.74
2018-12-03T09:26:06.841Z,994.78
2018-12-03T09:27:06.840Z,994.72
2018-12-03T09:28:06.859Z,994.70
2018-12-03T09:29:06.894Z,994.78
2018-12-03T09:30:06.825Z,994.79
2018-12-03T09:31:06.823Z,994.73
2018-12-03T09:32:06.864Z,994.75
2018-12-03T09:33:06.815Z,994.75
2018-12-03T09:34:06.889Z,994.73
2018-12-03T09:35:06.819Z,994.72
2018-12-03T09:36:06.904Z,994.62
2018-12-03T09:37:06.803Z,994.56
2018-12-03T09:38:06.853Z,994.65
2018-12-03T09:39:06.801Z,994.55
2018-12-03T09:40:06.922Z,994.52
2018-12-03T09:41:06.838Z,994.50
2018-12-03T09:42:06.829Z,994.52
2018-12-03T09:43:06.827Z,994.45
2018-12-03T09:44:06.816Z,994.50
2018-12-03T09:45:06.770Z,994.48
2018-12-03T09:46:06.768Z,994.42
2018-12-03T09:47:06.769Z,994.41
2018-12-03T09:48:06.772Z,994.41
2018-12-03T09:49:15.382Z,994.36
2018-12-03T09:51:09.218Z,994.31
2018-12-03T09:52:00.151Z,994.37
2018-12-03T09:53:00.144Z,994.38
2018-12-03T09:54:00.142Z,994.38
2018-12-03T09:55:00.158Z,994.34
2018-12-03T09:56:00.138Z,994.40
2018-12-03T09:57:00.136Z,994.36
2018-12-03T09:58:08.763Z,994.26
2018-12-03T09:59:53.765Z,994.26
2018-12-03T10:00:53.726Z,994.25
2018-12-03T10:01:53.738Z,994.31
2018-12-03T10:02:53.728Z,994.35
2018-12-03T10:03:53.722Z,994.28
2018-12-03T10:04:53.717Z,994.27
2018-12-03T10:05:53.717Z,994.25
2018-12-03T10:06:53.706Z,994.30
2018-12-03T10:07:53.704Z,994.32
2018-12-03T10:08:53.707Z,994.34
2018-12-03T10:09:53.697Z,994.29
2018-12-03T10:10:53.714Z,994.38
2018-12-03T10:13:15.935Z,994.39
2018-12-03T10:14:15.905Z,994.28
2018-12-03T10:15:24.554Z,994.33
2018-12-03T10:17:19.357Z,994.30
2018-12-03T10:18:17.931Z,994.30
2018-12-03T10:20:02.696Z,994.26
2018-12-03T10:22:24.405Z,994.21
2018-12-03T10:23:33.059Z,994.19
2018-12-03T10:25:17.820Z,994.20
2018-12-03T10:26:17.801Z,994.16
2018-12-03T10:27:17.813Z,994.22
2018-12-03T10:28:17.800Z,994.20
2018-12-03T10:29:17.791Z,994.16
2018-12-03T10:30:17.829Z,994.20
2018-12-03T10:31:26.420Z,994.22
2018-12-03T10:33:11.205Z,994.19
2018-12-03T10:34:11.177Z,994.19
2018-12-03T10:35:19.827Z,994.23
2018-12-03T10:37:04.617Z,994.20
2018-12-03T10:38:04.620Z,994.22
2018-12-03T10:39:04.563Z,994.32
2018-12-03T10:40:04.614Z,994.30
2018-12-03T10:41:04.591Z,994.28
2018-12-03T10:42:04.649Z,994.25
2018-12-03T10:43:04.543Z,994.22
2018-12-03T10:44:04.545Z,994.25
2018-12-03T10:45:04.550Z,994.22
2018-12-03T10:46:13.218Z,994.21
2018-12-03T10:48:06.999Z,994.16
2018-12-03T10:49:06.568Z,994.18
2018-12-03T10:51:00.381Z,994.21
2018-12-03T10:51:59.945Z,994.24
2018-12-03T10:53:53.779Z,994.17
2018-12-03T10:54:53.370Z,994.09
2018-12-03T10:56:45.796Z,994.03
2018-12-03T10:57:46.723Z,994.01
2018-12-03T10:59:40.578Z,993.98
2018-12-03T11:00:40.140Z,993.97
2018-12-03T11:02:24.880Z,993.98
